createdAt,value
2019-05-17T00:01:27.751Z,20.73
2019-05-17T00:03:57.168Z,22.10
2019-05-17T00:06:27.582Z,20.50
2019-05-17T00:08:57.040Z,20.93
2019-05-17T00:11:27.336Z,22.67
2019-05-17T00:13:57.063Z,22.23
2019-05-17T00:16:26.800Z,22.30
2019-05-17T00:18:56.797Z,24.27
2019-05-17T00:21:27.472Z,25.03
2019-05-17T00:23:57.327Z,22.43
2019-05-17T00:26:27.048Z,24.53
2019-05-17T00:28:56.554Z,26.00
2019-05-17T00:31:26.341Z,23.37
2019-05-17T00:33:56.654Z,25.03
2019-05-17T00:36:27.040Z,26.37
2019-05-17T00:38:56.880Z,25.47
2019-05-17T00:41:27.045Z,23.17
2019-05-17T00:43:56.958Z,24.13
2019-05-17T00:46:26.769Z,23.97
2019-05-17T00:48:57.323Z,23.10
2019-05-17T00:51:27.494Z,24.43
2019-05-17T00:53:57.098Z,22.83
2019-05-17T00:56:26.706Z,23.03
2019-05-17T00:58:56.848Z,22.47
2019-05-17T01:01:27.037Z,25.77
2019-05-17T01:03:57.100Z,24.67
2019-05-17T01:06:27.539Z,25.80
2019-05-17T01:09:01.859Z,26.00
2019-05-17T01:11:28.660Z,25.50
2019-05-17T01:13:58.683Z,30.67
2019-05-17T01:16:28.175Z,31.00
2019-05-17T01:18:57.459Z,35.93
2019-05-17T01:21:26.906Z,38.37
2019-05-17T01:23:56.383Z,44.37
2019-05-17T01:26:26.705Z,55.57
2019-05-17T01:28:57.350Z,55.60
2019-05-17T01:31:26.868Z,59.33
2019-05-17T01:33:56.620Z,60.17
2019-05-17T01:36:26.417Z,62.47
2019-05-17T01:38:57.591Z,59.33
2019-05-17T01:41:27.218Z,60.73
2019-05-17T01:43:57.009Z,60.70
2019-05-17T01:46:26.590Z,61.67
2019-05-17T01:48:57.714Z,59.20
2019-05-17T01:51:27.207Z,61.47
2019-05-17T01:53:57.349Z,62.47
2019-05-17T01:56:26.867Z,62.30
2019-05-17T01:58:57.498Z,66.63
2019-05-17T02:01:27.549Z,71.27
2019-05-17T02:03:57.563Z,72.30
2019-05-17T02:06:27.466Z,65.23
2019-05-17T02:08:56.931Z,69.47
2019-05-17T02:11:26.961Z,69.23
2019-05-17T02:13:56.566Z,65.10
2019-05-17T02:16:26.786Z,66.60
2019-05-17T02:18:57.295Z,66.03
2019-05-17T02:21:27.422Z,62.93
2019-05-17T02:23:57.211Z,65.17
2019-05-17T02:26:26.790Z,64.00
2019-05-17T02:28:56.352Z,67.30
2019-05-17T02:31:25.963Z,66.20
2019-05-17T02:33:55.509Z,67.27
2019-05-17T02:36:24.956Z,65.87
2019-05-17T02:38:54.353Z,67.80
2019-05-17T02:41:23.778Z,68.33
2019-05-17T02:43:53.621Z,70.30
2019-05-17T02:46:23.209Z,68.63
2019-05-17T02:48:53.870Z,69.97
2019-05-17T02:51:23.953Z,74.77
2019-05-17T02:53:53.558Z,70.43
2019-05-17T02:56:23.229Z,72.70
2019-05-17T02:58:53.476Z,72.97
2019-05-17T03:01:23.216Z,72.70
2019-05-17T03:03:53.110Z,73.70
2019-05-17T03:06:22.871Z,72.63
2019-05-17T03:08:52.630Z,71.33
2019-05-17T03:11:22.785Z,75.17
2019-05-17T03:13:52.745Z,76.57
2019-05-17T03:16:23.696Z,77.77
2019-05-17T03:18:53.453Z,74.10
2019-05-17T03:21:23.011Z,76.77
2019-05-17T03:23:53.978Z,73.07
2019-05-17T03:26:23.686Z,71.37
2019-05-17T03:28:53.776Z,70.37
2019-05-17T03:31:26.618Z,71.80
2019-05-17T03:33:56.697Z,70.53
2019-05-17T03:36:37.992Z,73.80
2019-05-17T03:39:07.637Z,72.30
2019-05-17T03:41:37.094Z,73.10
2019-05-17T03:44:06.483Z,70.57
2019-05-17T03:46:35.942Z,68.83
2019-05-17T03:49:05.452Z,68.60
2019-05-17T03:51:34.818Z,68.37
2019-05-17T03:54:04.293Z,61.97
2019-05-17T03:56:33.903Z,63.80
2019-05-17T03:59:03.918Z,67.70
2019-05-17T04:01:33.879Z,65.83
2019-05-17T04:04:03.355Z,67.63
2019-05-17T04:06:33.109Z,66.97
2019-05-17T04:09:03.786Z,68.07
2019-05-17T04:11:36.377Z,68.00
2019-05-17T04:14:04.520Z,65.80
2019-05-17T04:16:34.194Z,62.13
2019-05-17T04:19:03.732Z,69.90
2019-05-17T04:21:34.190Z,67.27
2019-05-17T04:24:04.047Z,68.67
2019-05-17T04:26:33.324Z,63.30
2019-05-17T04:29:03.548Z,70.07
2019-05-17T04:31:34.941Z,70.37
2019-05-17T04:34:04.316Z,62.47
2019-05-17T04:36:33.681Z,58.57
2019-05-17T04:39:04.761Z,58.93
2019-05-17T04:41:44.918Z,55.07
2019-05-17T04:44:05.376Z,52.60
2019-05-17T04:46:35.111Z,49.67
2019-05-17T04:49:04.408Z,48.60
2019-05-17T04:51:33.770Z,52.23
2019-05-17T04:54:03.520Z,55.83
2019-05-17T04:56:33.607Z,58.03
2019-05-17T04:59:03.735Z,57.23
2019-05-17T05:01:33.423Z,59.70
2019-05-17T05:04:03.854Z,62.57
2019-05-17T05:06:33.333Z,61.70
2019-05-17T05:09:02.915Z,65.10
2019-05-17T05:11:33.015Z,65.20
2019-05-17T05:14:02.986Z,70.13
2019-05-17T05:16:32.556Z,73.20
2019-05-17T05:19:02.932Z,67.50
2019-05-17T05:21:32.682Z,70.73
2019-05-17T05:24:02.595Z,69.93
2019-05-17T05:26:32.122Z,79.80
2019-05-17T05:29:02.244Z,74.87
2019-05-17T05:31:32.264Z,72.93
2019-05-17T05:34:02.051Z,64.70
2019-05-17T05:36:32.844Z,73.40
2019-05-17T05:39:02.587Z,69.93
2019-05-17T05:41:32.187Z,65.30
2019-05-17T05:44:02.094Z,61.10
2019-05-17T05:46:31.824Z,63.47
2019-05-17T05:49:01.956Z,69.50
2019-05-17T05:51:31.998Z,70.33
2019-05-17T05:54:01.908Z,73.93
2019-05-17T05:56:32.608Z,73.07
2019-05-17T05:59:02.962Z,72.67
2019-05-17T06:01:32.789Z,72.57
2019-05-17T06:04:02.715Z,75.50
2019-05-17T06:06:32.450Z,70.10
2019-05-17T06:09:02.712Z,72.37
2019-05-17T06:11:32.375Z,67.57
2019-05-17T06:14:01.951Z,63.40
2019-05-17T06:16:32.180Z,66.77
2019-05-17T06:19:02.394Z,61.87
2019-05-17T06:21:32.072Z,64.67
2019-05-17T06:24:02.561Z,61.50
2019-05-17T06:26:32.165Z,61.83
2019-05-17T06:29:02.731Z,62.33
2019-05-17T06:31:33.310Z,64.80
2019-05-17T06:34:02.963Z,60.43
2019-05-17T06:36:32.894Z,59.23
2019-05-17T06:39:07.009Z,58.40
2019-05-17T06:41:36.344Z,54.40
2019-05-17T06:44:05.880Z,52.70
2019-05-17T06:46:35.233Z,52.80
2019-05-17T06:49:04.626Z,49.33
2019-05-17T06:51:33.907Z,48.47
2019-05-17T06:54:03.293Z,46.77
2019-05-17T06:56:32.699Z,46.23
2019-05-17T06:59:02.391Z,44.33
2019-05-17T07:01:31.883Z,45.20
2019-05-17T07:04:01.383Z,41.53
2019-05-17T07:06:32.425Z,42.97
2019-05-17T07:09:01.805Z,39.00
2019-05-17T07:11:31.211Z,40.00
2019-05-17T07:14:00.630Z,36.73
2019-05-17T07:16:30.139Z,36.47
2019-05-17T07:18:59.818Z,35.87
2019-05-17T07:21:29.823Z,37.57
2019-05-17T07:23:59.451Z,33.97
2019-05-17T07:26:30.225Z,33.70
2019-05-17T07:28:59.703Z,32.27
2019-05-17T07:31:29.758Z,31.67
2019-05-17T07:33:59.881Z,32.57
2019-05-17T07:43:33.942Z,31.73
2019-05-17T07:46:03.339Z,30.87
2019-05-17T07:48:32.678Z,30.00
2019-05-17T07:51:01.977Z,27.43
2019-05-17T07:53:31.707Z,27.50
2019-05-17T07:56:01.146Z,28.33
2019-05-17T07:58:30.553Z,26.57
2019-05-17T08:01:02.114Z,25.33
2019-05-17T08:03:31.098Z,27.23
2019-05-17T08:06:00.715Z,24.60
2019-05-17T08:08:31.233Z,24.03
2019-05-17T08:11:00.968Z,25.93
2019-05-17T08:13:33.579Z,24.30
2019-05-17T08:16:01.774Z,22.33
2019-05-17T08:18:31.194Z,23.07
2019-05-17T08:21:00.716Z,21.13
2019-05-17T08:23:30.655Z,21.97
2019-05-17T08:26:00.556Z,20.87
2019-05-17T08:28:31.247Z,20.63
2019-05-17T08:31:01.381Z,19.10
2019-05-17T08:33:31.290Z,17.87
2019-05-17T08:36:01.247Z,15.40
2019-05-17T08:38:30.828Z,15.57
2019-05-17T08:41:00.786Z,15.83
2019-05-17T08:43:39.440Z,14.70
2019-05-17T08:46:02.474Z,15.00
2019-05-17T08:48:32.610Z,15.10
2019-05-17T08:51:02.055Z,15.03
2019-05-17T08:53:31.434Z,16.47
2019-05-17T08:56:01.175Z,16.97
2019-05-17T08:58:31.308Z,17.27
2019-05-17T09:01:00.638Z,17.40
2019-05-17T09:03:30.516Z,18.43
2019-05-17T09:06:02.016Z,16.53
2019-05-17T09:08:31.789Z,20.13
2019-05-17T09:11:01.090Z,18.37
2019-05-17T09:13:30.603Z,17.07
2019-05-17T09:16:00.471Z,16.63
2019-05-17T09:18:30.521Z,15.97
2019-05-17T09:21:00.461Z,14.73
2019-05-17T09:23:30.718Z,18.50
2019-05-17T09:26:00.117Z,18.43
2019-05-17T09:28:30.060Z,15.20
2019-05-17T09:31:00.070Z,14.67
2019-05-17T09:33:30.249Z,15.13
2019-05-17T09:36:00.859Z,14.47
2019-05-17T09:38:30.433Z,14.57
2019-05-17T09:41:00.241Z,14.43
2019-05-17T09:43:29.830Z,14.23
2019-05-17T09:46:01.555Z,14.60
2019-05-17T09:48:30.929Z,14.53
2019-05-17T09:51:00.778Z,13.60
2019-05-17T09:53:30.801Z,14.30
2019-05-17T09:56:00.785Z,13.33
2019-05-17T09:58:30.272Z,13.30
2019-05-17T10:01:01.360Z,12.17
2019-05-17T10:03:31.091Z,13.07
2019-05-17T10:06:00.528Z,13.63
2019-05-17T10:08:30.691Z,13.03
2019-05-17T10:11:08.648Z,13.47
2019-05-17T10:13:31.350Z,13.40
2019-05-17T10:16:00.846Z,12.17
2019-05-17T10:18:30.217Z,11.00
2019-05-17T10:20:59.960Z,11.63
2019-05-17T10:23:30.041Z,11.57
2019-05-17T10:25:59.798Z,11.53
2019-05-17T10:28:29.423Z,11.37
2019-05-17T10:31:02.222Z,10.57
2019-05-17T10:33:30.118Z,9.87
2019-05-17T10:36:00.448Z,10.70
2019-05-17T10:38:30.366Z,10.40
2019-05-17T10:40:59.771Z,12.50
2019-05-17T10:43:29.972Z,10.53
2019-05-17T10:45:59.787Z,10.30
2019-05-17T10:48:30.046Z,10.60
2019-05-17T10:51:00.284Z,10.17
2019-05-17T10:53:30.368Z,11.17
2019-05-17T10:56:00.622Z,10.50
2019-05-17T10:58:30.432Z,10.23
2019-05-17T11:01:00.851Z,9.90
2019-05-17T11:03:30.330Z,9.70
2019-05-17T11:05:59.929Z,9.63
2019-05-17T11:11:20.333Z,10.30
2019-05-17T11:13:52.773Z,9.53
2019-05-17T11:16:20.903Z,11.40
2019-05-17T11:18:50.233Z,10.27
2019-05-17T11:21:19.595Z,11.23
2019-05-17T11:23:49.151Z,10.93
2019-05-17T11:26:18.494Z,9.57
2019-05-17T11:28:48.008Z,8.87
2019-05-17T11:31:17.538Z,9.57
2019-05-17T11:33:46.955Z,10.40
2019-05-17T11:36:17.998Z,9.20
2019-05-17T11:38:47.331Z,9.70
2019-05-17T11:41:21.092Z,9.67
2019-05-17T11:43:47.885Z,9.30
2019-05-17T11:46:17.188Z,9.07
2019-05-17T11:48:46.937Z,8.50
2019-05-17T11:51:16.315Z,8.93
2019-05-17T11:53:45.681Z,8.87
2019-05-17T11:56:15.293Z,8.53
2019-05-17T11:58:44.692Z,9.90
2019-05-17T12:01:14.116Z,9.50
2019-05-17T12:03:43.414Z,10.20
2019-05-17T12:06:13.064Z,9.80
2019-05-17T12:08:42.807Z,9.27
2019-05-17T12:11:12.377Z,9.93
2019-05-17T12:13:43.662Z,10.07
2019-05-17T12:16:12.876Z,9.97
2019-05-17T12:18:42.283Z,10.30
2019-05-17T12:21:11.855Z,10.60
2019-05-17T12:23:41.353Z,10.87
2019-05-17T12:26:10.803Z,11.33
2019-05-17T12:28:40.369Z,10.33
2019-05-17T12:31:09.799Z,10.50
2019-05-17T12:33:41.636Z,11.03
2019-05-17T12:36:11.462Z,11.40
2019-05-17T12:38:41.112Z,14.30
2019-05-17T12:41:11.356Z,12.23
2019-05-17T12:43:41.545Z,11.80
2019-05-17T12:46:11.780Z,11.40
2019-05-17T12:48:42.490Z,13.23
2019-05-17T12:51:11.870Z,13.30
2019-05-17T12:53:41.330Z,12.57
2019-05-17T12:56:10.685Z,12.20
2019-05-17T12:58:40.167Z,10.53
2019-05-17T13:01:09.607Z,9.00
2019-05-17T13:03:39.187Z,9.37
2019-05-17T13:06:08.730Z,11.47
2019-05-17T13:08:38.877Z,13.07
2019-05-17T13:11:08.257Z,13.10
2019-05-17T13:13:40.193Z,12.87
2019-05-17T13:16:18.134Z,13.33
2019-05-17T13:18:40.556Z,12.10
2019-05-17T13:21:10.003Z,14.20
2019-05-17T13:23:39.390Z,10.17
2019-05-17T13:26:08.773Z,9.07
2019-05-17T13:28:38.178Z,8.03
2019-05-17T13:31:07.530Z,9.67
2019-05-17T13:33:37.122Z,7.90
2019-05-17T13:36:06.646Z,7.73
2019-05-17T13:38:36.039Z,10.13
2019-05-17T13:41:05.553Z,10.53
2019-05-17T13:43:34.991Z,11.83
2019-05-17T13:46:04.391Z,12.40
2019-05-17T13:48:33.942Z,11.57
2019-05-17T13:51:03.522Z,13.97
2019-05-17T13:53:33.354Z,13.13
2019-05-17T13:56:03.388Z,13.93
2019-05-17T13:58:32.971Z,14.73
2019-05-17T14:01:03.979Z,11.33
2019-05-17T14:03:33.358Z,13.50
2019-05-17T14:06:03.008Z,13.63
2019-05-17T14:08:32.556Z,12.60
2019-05-17T14:11:02.149Z,11.60
2019-05-17T14:13:31.558Z,12.67
2019-05-17T14:16:00.937Z,9.60
2019-05-17T14:18:30.308Z,9.70
2019-05-17T14:20:59.617Z,9.93
2019-05-17T14:23:28.960Z,10.20
2019-05-17T14:25:58.501Z,8.90
2019-05-17T14:28:28.314Z,9.00
2019-05-17T14:30:57.720Z,9.13
2019-05-17T14:33:27.324Z,5.03
2019-05-17T14:35:56.695Z,5.50
2019-05-17T14:38:26.008Z,5.40
2019-05-17T14:41:10.950Z,5.47
2019-05-17T14:43:26.904Z,6.53
2019-05-17T14:45:56.426Z,7.07
2019-05-17T14:48:25.807Z,5.93
2019-05-17T14:50:55.293Z,6.40
2019-05-17T14:53:24.735Z,5.30
2019-05-17T14:55:54.107Z,6.80
2019-05-17T14:58:23.496Z,5.00
2019-05-17T15:00:52.881Z,6.40
2019-05-17T15:03:22.364Z,7.40
2019-05-17T15:05:51.722Z,6.97
2019-05-17T15:08:21.156Z,6.93
2019-05-17T15:10:50.685Z,6.93
2019-05-17T15:13:20.153Z,9.37
2019-05-17T15:15:49.472Z,11.93
2019-05-17T15:18:19.069Z,26.27
2019-05-17T15:20:48.517Z,23.57
2019-05-17T15:23:18.242Z,14.70
2019-05-17T15:25:47.614Z,12.60
2019-05-17T15:28:17.205Z,10.37
2019-05-17T15:30:46.593Z,8.70
2019-05-17T15:33:16.147Z,8.60
2019-05-17T15:35:45.521Z,9.33
2019-05-17T15:38:15.198Z,9.97
2019-05-17T15:40:44.590Z,7.87
2019-05-17T15:43:13.889Z,7.57
2019-05-17T15:45:43.288Z,7.10
2019-05-17T15:48:12.796Z,6.50
2019-05-17T15:50:42.242Z,8.03
2019-05-17T15:53:11.965Z,8.10
2019-05-17T15:55:41.411Z,7.83
2019-05-17T15:58:11.231Z,6.30
2019-05-17T16:00:40.485Z,10.13
2019-05-17T16:03:09.981Z,22.90
2019-05-17T16:05:39.443Z,19.77
2019-05-17T16:08:08.904Z,15.70
2019-05-17T16:10:38.352Z,15.27
2019-05-17T16:13:07.791Z,12.57
2019-05-17T16:15:37.211Z,17.90
2019-05-17T16:18:06.556Z,13.40
2019-05-17T16:20:36.010Z,10.17
2019-05-17T16:23:05.447Z,10.03
2019-05-17T16:25:34.999Z,13.90
2019-05-17T16:28:06.397Z,10.10
2019-05-17T16:30:38.178Z,10.40
2019-05-17T16:33:07.589Z,10.20
2019-05-17T16:35:37.308Z,9.00
2019-05-17T16:38:06.874Z,8.83
2019-05-17T16:40:39.568Z,10.03
2019-05-17T16:43:17.769Z,9.90
2019-05-17T16:45:40.261Z,9.63
2019-05-17T16:48:09.672Z,10.87
2019-05-17T16:50:39.035Z,10.47
2019-05-17T16:53:08.419Z,13.03
2019-05-17T16:55:37.962Z,9.43
2019-05-17T16:58:07.675Z,11.80
2019-05-17T17:00:39.023Z,6.83
2019-05-17T17:03:08.649Z,6.97
2019-05-17T17:05:38.190Z,8.20
2019-05-17T17:08:08.287Z,7.67
2019-05-17T17:10:37.935Z,6.67
2019-05-17T17:13:08.171Z,8.40
2019-05-17T17:15:37.833Z,7.50
2019-05-17T17:18:07.541Z,6.83
2019-05-17T17:20:37.045Z,7.47
2019-05-17T17:23:06.551Z,8.50
2019-05-17T17:25:35.994Z,7.70
2019-05-17T17:28:06.218Z,9.57
2019-05-17T17:30:35.838Z,9.20
2019-05-17T17:33:05.167Z,11.23
2019-05-17T17:35:34.570Z,13.73
2019-05-17T17:38:03.951Z,9.93
2019-05-17T17:40:33.356Z,9.20
2019-05-17T17:43:02.735Z,8.23
2019-05-17T17:45:32.130Z,7.93
2019-05-17T17:48:01.512Z,7.90
2019-05-17T17:50:30.953Z,6.87
2019-05-17T17:53:00.379Z,6.50
2019-05-17T17:55:29.899Z,7.40
2019-05-17T17:57:59.201Z,7.67
2019-05-17T18:00:28.673Z,9.40
2019-05-17T18:02:58.092Z,13.67
2019-05-17T18:05:27.513Z,10.87
2019-05-17T18:07:56.939Z,14.73
2019-05-17T18:10:31.920Z,14.67
2019-05-17T18:13:01.341Z,11.87
2019-05-17T18:15:41.584Z,11.07
2019-05-17T18:18:11.070Z,11.60
2019-05-17T18:20:40.494Z,8.53
2019-05-17T18:23:09.944Z,8.33
2019-05-17T18:25:40.558Z,8.23
2019-05-17T18:28:10.634Z,8.60
2019-05-17T18:30:40.053Z,8.20
2019-05-17T18:33:09.423Z,7.80
2019-05-17T18:35:39.790Z,6.90
2019-05-17T18:38:09.154Z,7.87
2019-05-17T18:40:38.546Z,8.20
2019-05-17T18:43:08.973Z,6.37
2019-05-17T18:45:38.267Z,6.73
2019-05-17T18:48:07.670Z,9.57
2019-05-17T18:50:37.050Z,6.63
2019-05-17T18:53:12.996Z,5.00
2019-05-17T18:55:37.925Z,6.47
2019-05-17T18:58:07.569Z,13.23
2019-05-17T19:00:36.987Z,8.60
2019-05-17T19:03:06.367Z,7.20
2019-05-17T19:05:35.735Z,8.20
2019-05-17T19:08:05.026Z,6.97
2019-05-17T19:10:34.429Z,7.13
2019-05-17T19:13:03.977Z,7.13
2019-05-17T19:15:33.501Z,7.33
2019-05-17T19:18:03.034Z,8.43
2019-05-17T19:20:32.552Z,10.20
2019-05-17T19:23:02.165Z,10.83
2019-05-17T19:25:31.574Z,8.53
2019-05-17T19:28:02.538Z,8.50
2019-05-17T19:30:32.026Z,7.80
2019-05-17T19:33:01.475Z,7.47
2019-05-17T19:35:30.883Z,8.43
2019-05-17T19:38:00.274Z,7.93
2019-05-17T19:40:29.697Z,9.67
2019-05-17T19:42:59.132Z,9.00
2019-05-17T19:45:28.505Z,7.43
2019-05-17T19:47:57.809Z,9.57
2019-05-17T19:50:27.252Z,11.60
2019-05-17T19:52:56.774Z,10.13
2019-05-17T19:55:26.235Z,11.93
2019-05-17T19:57:55.622Z,9.63
2019-05-17T20:00:25.486Z,9.53
2019-05-17T20:02:56.044Z,11.90
2019-05-17T20:05:25.478Z,9.33
2019-05-17T20:07:54.868Z,14.57
2019-05-17T20:10:24.568Z,13.17
2019-05-17T20:12:53.911Z,15.47
2019-05-17T20:15:34.203Z,13.87
2019-05-17T20:17:57.988Z,12.00
2019-05-17T20:20:27.423Z,15.17
2019-05-17T20:22:56.882Z,14.27
2019-05-17T20:25:26.187Z,16.77
2019-05-17T20:27:57.157Z,13.80
2019-05-17T20:30:26.700Z,12.30
2019-05-17T20:32:56.123Z,12.70
2019-05-17T20:35:27.938Z,10.90
2019-05-17T20:37:57.364Z,11.53
2019-05-17T20:40:26.850Z,12.03
2019-05-17T20:42:56.219Z,17.00
2019-05-17T20:45:33.140Z,10.77
2019-05-17T20:47:58.402Z,11.63
2019-05-17T20:50:27.871Z,14.10
2019-05-17T20:52:57.588Z,16.73
2019-05-17T20:55:27.480Z,18.30
2019-05-17T20:57:57.040Z,14.80
2019-05-17T21:00:26.406Z,16.97
2019-05-17T21:02:55.850Z,14.73
2019-05-17T21:05:25.266Z,15.97
2019-05-17T21:07:54.684Z,16.53
2019-05-17T21:10:24.233Z,15.73
2019-05-17T21:12:53.710Z,15.43
2019-05-17T21:15:23.162Z,13.60
2019-05-17T21:17:52.840Z,12.53
2019-05-17T21:20:23.406Z,14.77
2019-05-17T21:22:52.998Z,13.17
2019-05-17T21:25:22.535Z,16.10
2019-05-17T21:27:51.873Z,13.20
2019-05-17T21:30:21.413Z,14.20
2019-05-17T21:32:50.798Z,13.03
2019-05-17T21:35:20.228Z,12.60
2019-05-17T21:37:49.665Z,12.37
2019-05-17T21:40:19.003Z,13.10
2019-05-17T21:42:48.308Z,11.60
2019-05-17T21:45:17.766Z,14.27
2019-05-17T21:47:47.171Z,11.97
2019-05-17T21:50:17.854Z,13.20
2019-05-17T21:52:47.172Z,12.87
2019-05-17T21:55:16.567Z,11.03
2019-05-17T21:57:45.895Z,12.10
2019-05-17T22:00:24.341Z,10.20
2019-05-17T22:02:53.803Z,9.60
2019-05-17T22:05:23.149Z,10.67
2019-05-17T22:07:52.683Z,14.80
2019-05-17T22:10:22.196Z,12.93
2019-05-17T22:12:51.586Z,11.70
2019-05-17T22:15:20.982Z,10.73
2019-05-17T22:17:50.334Z,11.97
2019-05-17T22:20:19.978Z,11.57
2019-05-17T22:22:49.356Z,12.27
2019-05-17T22:25:18.774Z,16.00
2019-05-17T22:27:48.259Z,13.80
2019-05-17T22:30:17.962Z,13.63
2019-05-17T22:32:47.372Z,16.03
2019-05-17T22:35:17.017Z,15.87
2019-05-17T22:37:46.617Z,14.40
2019-05-17T22:40:15.991Z,14.00
2019-05-17T22:42:45.424Z,13.83
2019-05-17T22:45:14.974Z,12.93
2019-05-17T22:47:44.315Z,16.37
2019-05-17T22:50:14.368Z,13.63
2019-05-17T22:52:44.019Z,11.47
2019-05-17T22:55:13.542Z,12.90
2019-05-17T22:57:43.030Z,14.40
2019-05-17T23:00:13.034Z,13.33
2019-05-17T23:02:42.573Z,14.73
2019-05-17T23:05:12.068Z,14.57
2019-05-17T23:07:41.622Z,15.23
2019-05-17T23:10:11.111Z,13.23
2019-05-17T23:12:40.626Z,12.87
2019-05-17T23:15:10.420Z,13.23
2019-05-17T23:17:40.016Z,15.77
2019-05-17T23:20:09.642Z,14.63
2019-05-17T23:22:39.165Z,15.13
2019-05-17T23:25:08.930Z,14.27
2019-05-17T23:27:38.416Z,16.90
2019-05-17T23:30:08.771Z,16.23
2019-05-17T23:32:38.274Z,17.67
2019-05-17T23:35:08.527Z,14.90
2019-05-17T23:37:37.880Z,16.50
2019-05-17T23:40:07.511Z,16.97
2019-05-17T23:42:38.303Z,17.50
2019-05-17T23:45:07.855Z,16.43
2019-05-17T23:47:37.384Z,14.77
2019-05-17T23:50:07.276Z,16.40
2019-05-17T23:52:36.719Z,14.97
2019-05-17T23:55:06.729Z,14.87
2019-05-17T23:57:36.121Z,16.83
